Saint-Jacques, Canada
Current Conditions -  °F | °C
As of 2:00 PM on Tuesday 27 Jan 2015 (Local Time) from CYMX Reporting Station
Broken Clouds Broken Clouds  
Wind Chill:   Ceiling: 21000
Heat Index: 12°   Visibility: 45mi
Dew Point: -9°   Wind: 7mph
Humidity: 38%   Direction: 50°NE
Pressure: 30.04"   Gusts: NA
Location:  45.95°N, 73.57°W
Report Text: CYMX 271900Z 05006KT 45SM FEW160 BKN210 M11/M23 A3004 RMK AC2CI4 SLP179
Loading
Personal Weather Stations






























Interactive Weather Map New forecast layout! Learn more

10-Day Weather Forecast

Advertisements
Track Severe Weather on mobile